Hanging Rock, Ohio
Current Conditions -  °F | °C
As of 1:15 PM on Thursday 23 Oct 2014 (Local Time) from KDWU Reporting Station
Broken Clouds Broken Clouds  
Wind Chill: 55°   Ceiling: 3800
Heat Index: 55°   Visibility: 10mi
Dew Point: 39°   Wind: 5mph
Humidity: 54%   Direction: 270°W
Pressure: 30.19"   Gusts: NA
Location:  38.545°N, 82.6629°W
Report Text: KDWU 231715Z AUTO 27004KT 10SM BKN038 13/04 A3019 RMK AO1
Loading
Personal Weather Stations






























Interactive Weather Map
Tropical Storm Tracking
New forecast layout! Learn more

10-Day Weather Forecast

Advertisements
Track Severe Weather on mobile